Shady Grove, PA (17256)

12:55 AM EDT on August 31, 2016 (GMT -0400)
State Line | | Change Station

Elev 661 ft 39.74 °N, 77.72 °W | Updated 23 seconds ago

Clear
Clear
66.9 °F
Feels Like 66.9 °F
N
0.0
Wind Variable Wind from SSW
Gusts 0.0 mph

Today
High -- | Low -- °F
--% Chance of Precip.
Yesterday
High -- | Low -- °F
Precip. -- in
Pressure 30.07 in
Visibility 10.0 miles
Clouds Clear
Dew Point 60 °F
Humidity 79%
Rainfall 0.00 in
Snow Depth Not available.
6:38 AM 7:42 PM
Waning Crescent, 1% visible
METAR KHGR 310353Z AUTO 08003KT 10SM CLR 25/15 A3006 RMK AO2 SLP182 T02500150
Pressure 30.07 in
Visibility 10.0 miles
Clouds Clear
Dew Point 60 °F
Humidity 79%
Rainfall 0.00 in
Snow Depth Not available.
6:38 AM 7:42 PM
Waning Crescent, 1% visible
METAR KHGR 310353Z AUTO 08003KT 10SM CLR 25/15 A3006 RMK AO2 SLP182 T02500150

10-Day Weather Forecast

Almanac

Astronomy

Aug. 31, 2016 Rise Set
Actual Time
Civil Twilight
Nautical Twilight
Astronomical Twilight
Moon
Length of Visible Light
Length of Day
Tomorrow will be .
, % of the Moon is Illuminated

Today's Extremes

State Highs State Lows

Community

WunderPhotos

Upload Photos

1,936,039 photos uploaded!

WunderBlog® & News

Nearby

Air Quality

  Air Quality AQ Index Pollutant
Not available.

Snow Depth

Station Depth Elevation

Earthquake Activity

City Distance Mag. Time & Date
Minimum magnitude displayed is 2.5.

Coastal Water Temperatures

Place Temperature

Stations

Nearby Weather Stations

Station Location Temp. Windchill Dew Point Humidity Wind Precip. Elev Updated Type
                   

Watches & Warnings

There are currently no watches in effect.